Terminal Aerodrome Forecast
Issued by NWS

Current Version | Previous Version | Text Only | Print | Product List | Glossary On
Versions: 1 2 3 4 5 6 7 8 9 10 11 12 13 14 15
337
FTUS46 KSTO 141803 AAA
TAFSAC
TAF AMD
KSAC 141803Z 1418/1518 33008KT P6SM SCT150 SCT250
     FM142000 33014G23KT P6SM FEW250
     FM150300 33012KT P6SM SKC
     FM151300 33008KT 4SM BR SKC=

USA.gov is the U.S. government's official web portal to all federal, state and local government web resources and services.